Time;durP1;ratioP1;P1;durP2;ratioP2;P2;SDS_P1;SDS_P2;PMS_P1;PMS_P2;Temp;Humidity;BMP_temperature;BMP_pressure;BME280_temperature;BME280_humidity;BME280_pressure;Samples;Min_cycle;Max_cycle;Signal;HPM_P1;HPM_P2
2022/06/01 00:02:15;;;;;;;4.20;3.57;;;18.70;72.40;;;;;;4979944;28;20214;-74
2022/06/01 00:04:42;;;;;;;10.23;4.17;;;18.70;72.80;;;;;;4982319;28;20884;-73
2022/06/01 00:07:07;;;;;;;4.03;3.70;;;18.70;73.20;;;;;;4984448;28;20534;-74
2022/06/01 00:09:33;;;;;;;3.73;3.43;;;18.80;72.90;;;;;;4986488;28;20436;-73
2022/06/01 00:11:59;;;;;;;5.43;3.80;;;18.80;73.00;;;;;;4984039;28;20212;-74
2022/06/01 00:14:24;;;;;;;4.50;3.40;;;18.60;73.70;;;;;;4981175;28;20209;-74
2022/06/01 00:16:55;;;;;;;4.50;3.63;;;18.60;74.10;;;;;;4980439;28;20227;-74
2022/06/01 00:19:22;;;;;;;5.53;4.10;;;18.40;74.50;;;;;;4979582;28;20182;-73
2022/06/01 00:24:33;;;;;;;5.10;4.03;;;18.50;75.50;;;;;;4981997;28;20447;-74
2022/06/01 00:26:58;;;;;;;4.63;3.60;;;18.40;75.70;;;;;;4982102;28;20472;-73
2022/06/01 00:29:24;;;;;;;5.03;3.50;;;18.40;75.80;;;;;;4965400;28;20463;-74
2022/06/01 00:31:50;;;;;;;4.40;3.57;;;18.50;75.90;;;;;;4982528;28;20847;-73
2022/06/01 00:34:15;;;;;;;4.50;3.73;;;18.40;76.50;;;;;;4978591;28;20178;-74
2022/06/01 00:36:41;;;;;;;4.37;3.77;;;18.40;76.60;;;;;;4980156;28;20880;-73
2022/06/01 00:39:06;;;;;;;4.23;3.47;;;18.30;77.20;;;;;;4982633;28;20189;-74
2022/06/01 00:41:32;;;;;;;5.90;3.43;;;18.30;77.70;;;;;;4981573;28;20185;-73
2022/06/01 00:43:58;;;;;;;6.30;3.90;;;18.30;77.40;;;;;;4980533;28;20237;-73
2022/06/01 00:46:24;;;;;;;4.00;3.53;;;18.30;77.80;;;;;;4982147;28;20436;-73
2022/06/01 00:48:54;;;;;;;3.70;3.40;;;18.30;78.10;;;;;;4961640;28;20221;-73
2022/06/01 00:51:24;;;;;;;5.57;3.77;;;18.20;78.20;;;;;;4969103;28;20429;-72
2022/06/01 00:53:52;;;;;;;4.17;3.40;;;18.30;78.10;;;;;;4982515;28;20629;-73
2022/06/01 00:56:38;;;;;;;4.40;3.87;;;18.10;78.40;;;;;;4982111;28;20441;-73
2022/06/01 00:59:09;;;;;;;4.13;3.83;;;18.20;78.40;;;;;;4983969;28;20482;-73
2022/06/01 01:01:35;;;;;;;4.20;3.63;;;18.20;78.50;;;;;;4986057;28;20899;-73
2022/06/01 01:04:03;;;;;;;4.70;3.63;;;18.10;79.00;;;;;;4983020;28;20469;-74
2022/06/01 01:06:33;;;;;;;4.43;3.87;;;18.20;78.80;;;;;;4962966;28;20189;-74
2022/06/01 01:08:59;;;;;;;4.83;3.80;;;18.10;79.50;;;;;;4980742;28;20437;-74
2022/06/01 01:11:45;;;;;;;4.00;3.43;;;18.10;80.30;;;;;;4963149;28;20437;-74
2022/06/01 01:14:13;;;;;;;4.40;3.67;;;17.80;80.90;;;;;;4971954;28;20829;-73
2022/06/01 01:16:39;;;;;;;4.80;4.20;;;17.70;82.50;;;;;;4981410;28;20449;-73
2022/06/01 01:19:16;;;;;;;7.30;3.87;;;17.60;82.00;;;;;;4978268;28;20487;-74
2022/06/01 01:21:53;;;;;;;7.70;4.33;;;17.70;81.60;;;;;;4979137;28;20433;-73
2022/06/01 01:24:45;;;;;;;4.30;3.90;;;17.70;81.30;;;;;;4979797;28;20460;-73
2022/06/01 01:27:11;;;;;;;3.80;3.50;;;17.80;81.40;;;;;;4978706;28;20488;-73
2022/06/01 01:29:40;;;;;;;5.20;3.60;;;17.80;81.20;;;;;;4961836;28;20445;-73
2022/06/01 01:32:08;;;;;;;4.10;3.70;;;17.80;80.80;;;;;;4980621;28;20268;-73
2022/06/01 01:34:35;;;;;;;3.70;3.40;;;17.70;81.40;;;;;;4980895;28;20445;-73
2022/06/01 01:37:04;;;;;;;4.70;4.20;;;17.60;81.80;;;;;;4957657;28;20463;-73
2022/06/01 01:39:35;;;;;;;4.00;3.50;;;17.50;82.70;;;;;;4981218;28;20496;-73
2022/06/01 01:42:01;;;;;;;4.17;3.57;;;17.30;83.90;;;;;;4979211;28;20468;-73
2022/06/01 01:44:45;;;;;;;5.67;4.17;;;17.40;84.40;;;;;;4980557;28;20441;-73
2022/06/01 01:47:12;;;;;;;3.80;3.40;;;17.30;85.30;;;;;;4980734;28;20519;-73
2022/06/01 01:49:39;;;;;;;4.73;4.33;;;17.40;84.60;;;;;;4976997;28;20437;-73
2022/06/01 01:52:13;;;;;;;5.27;4.07;;;17.40;85.20;;;;;;4980984;28;20519;-73
2022/06/01 01:54:39;;;;;;;5.80;3.90;;;17.20;86.40;;;;;;4978460;28;21176;-73
2022/06/01 01:57:05;;;;;;;4.70;3.63;;;17.20;87.00;;;;;;4983282;28;20436;-73
2022/06/01 01:59:42;;;;;;;7.00;4.23;;;17.40;86.90;;;;;;4979763;28;20216;-73
2022/06/01 02:02:36;;;;;;;4.30;3.90;;;17.40;86.90;;;;;;4982608;28;20213;-74
2022/06/01 02:08:07;;;;;;;6.00;4.10;;;17.20;88.30;;;;;;4977644;28;20503;-73
2022/06/01 02:13:18;;;;;;;8.10;4.13;;;17.10;87.90;;;;;;4977980;28;20908;-73
2022/06/01 02:15:47;;;;;;;6.67;3.80;;;17.00;88.10;;;;;;4979617;28;20441;-73
2022/06/01 02:18:18;;;;;;;4.97;3.77;;;17.00;88.20;;;;;;4979506;28;20928;-73
2022/06/01 02:20:58;;;;;;;4.47;4.00;;;17.10;88.00;;;;;;4977887;28;21010;-73
2022/06/01 02:23:24;;;;;;;3.80;3.50;;;17.00;88.40;;;;;;4978202;28;20456;-73
2022/06/01 02:25:50;;;;;;;5.60;4.23;;;17.10;88.30;;;;;;4979076;28;21010;-73
2022/06/01 02:28:17;;;;;;;4.10;3.70;;;17.20;89.10;;;;;;4980412;28;20228;-73
2022/06/01 02:30:44;;;;;;;3.90;3.30;;;17.10;88.50;;;;;;4980578;28;20583;-73
2022/06/01 02:33:17;;;;;;;5.47;3.90;;;17.10;88.80;;;;;;4978978;28;20539;-72
2022/06/01 02:35:47;;;;;;;4.03;3.63;;;17.10;88.80;;;;;;4977862;28;20441;-73
2022/06/01 02:38:18;;;;;;;5.07;4.00;;;17.10;89.30;;;;;;4978566;28;20952;-74
2022/06/01 02:40:44;;;;;;;4.87;4.10;;;17.00;88.70;;;;;;4980123;28;20590;-73
2022/06/01 02:43:09;;;;;;;4.40;3.70;;;17.00;89.30;;;;;;4976918;28;21148;-73
2022/06/01 02:45:35;;;;;;;5.50;4.47;;;17.00;90.10;;;;;;4980124;28;20191;-73
2022/06/01 02:48:02;;;;;;;4.60;4.20;;;16.80;90.50;;;;;;4978207;28;20205;-73
2022/06/01 02:50:31;;;;;;;4.30;3.90;;;16.80;90.40;;;;;;4978139;28;20440;-73
2022/06/01 02:52:57;;;;;;;5.10;4.60;;;16.80;90.70;;;;;;4980204;28;20471;-72
2022/06/01 02:55:24;;;;;;;4.53;4.13;;;16.80;90.60;;;;;;4976396;28;20472;-73
2022/06/01 02:57:51;;;;;;;4.30;3.90;;;16.90;90.70;;;;;;4980256;28;20460;-73
2022/06/01 03:00:23;;;;;;;7.20;4.27;;;16.90;90.60;;;;;;4979403;28;20457;-72
2022/06/01 03:02:52;;;;;;;4.23;3.77;;;16.70;90.70;;;;;;4961731;28;20468;-73
2022/06/01 03:05:20;;;;;;;4.83;4.40;;;16.70;90.90;;;;;;4979744;28;21134;-74
2022/06/01 03:07:46;;;;;;;4.57;4.03;;;16.50;91.20;;;;;;4978510;28;20473;-73
2022/06/01 03:10:12;;;;;;;5.70;3.53;;;16.40;91.70;;;;;;4977063;28;20476;-74
2022/06/01 03:12:38;;;;;;;8.53;4.10;;;16.40;92.10;;;;;;4977282;28;20565;-74
2022/06/01 03:15:07;;;;;;;9.13;4.23;;;16.40;92.10;;;;;;4977480;28;20209;-74
2022/06/01 03:17:33;;;;;;;4.07;3.67;;;16.40;91.90;;;;;;4958466;28;21124;-72
2022/06/01 03:20:00;;;;;;;4.40;3.97;;;16.60;91.60;;;;;;4977736;28;20449;-73
2022/06/01 03:22:25;;;;;;;6.13;4.50;;;16.60;91.80;;;;;;4980320;28;20472;-73
2022/06/01 03:24:51;;;;;;;5.37;4.20;;;16.60;91.60;;;;;;4980749;28;20999;-73
2022/06/01 03:27:17;;;;;;;5.13;3.90;;;16.70;91.70;;;;;;4961270;28;20695;-73
2022/06/01 03:29:43;;;;;;;4.07;3.73;;;16.50;91.50;;;;;;4978866;28;20599;-73
2022/06/01 03:32:09;;;;;;;4.50;4.10;;;16.40;91.80;;;;;;4977252;28;21051;-73
2022/06/01 03:34:35;;;;;;;5.30;4.10;;;16.20;92.00;;;;;;4977398;28;20445;-73
2022/06/01 03:37:02;;;;;;;5.27;4.30;;;16.00;92.60;;;;;;4978899;28;20452;-74
2022/06/01 03:39:28;;;;;;;5.03;4.50;;;16.00;92.60;;;;;;4985926;28;20956;-74
2022/06/01 03:41:54;;;;;;;6.00;4.00;;;16.10;92.90;;;;;;4984366;28;20437;-73
2022/06/01 03:47:14;;;;;;;8.40;4.00;;;16.10;93.10;;;;;;4911362;28;20224;-72
2022/06/01 03:49:39;;;;;;;4.03;3.73;;;16.00;93.20;;;;;;4985074;28;20991;-72
2022/06/01 03:52:07;;;;;;;5.60;4.27;;;16.10;93.40;;;;;;4981476;28;20209;-72
2022/06/01 03:54:32;;;;;;;4.40;4.00;;;16.10;93.00;;;;;;4983728;28;20188;-73
2022/06/01 03:56:58;;;;;;;4.97;4.10;;;16.00;93.60;;;;;;4981363;28;20444;-72
2022/06/01 03:59:24;;;;;;;4.13;3.73;;;16.00;93.70;;;;;;4983865;28;20780;-72
2022/06/01 04:01:49;;;;;;;4.50;4.10;;;15.90;94.30;;;;;;4982515;28;20202;-73
2022/06/01 04:04:15;;;;;;;6.23;5.63;;;16.00;94.30;;;;;;4982176;28;20268;-72
2022/06/01 04:06:43;;;;;;;6.53;5.40;;;15.80;94.70;;;;;;4981616;28;20194;-72
2022/06/01 04:09:08;;;;;;;5.67;5.17;;;15.90;94.70;;;;;;4982889;28;20289;-72
2022/06/01 04:11:37;;;;;;;5.87;5.00;;;15.90;95.10;;;;;;4980690;28;20444;-72
2022/06/01 04:14:02;;;;;;;6.20;4.73;;;15.80;95.40;;;;;;4982296;28;20220;-73
2022/06/01 04:16:28;;;;;;;7.33;4.97;;;15.80;96.20;;;;;;4983694;28;20440;-72
2022/06/01 04:18:54;;;;;;;6.70;5.43;;;15.70;96.60;;;;;;4982146;28;20224;-73
2022/06/01 04:21:23;;;;;;;5.33;4.40;;;15.80;97.40;;;;;;4980493;28;20581;-73
2022/06/01 04:23:50;;;;;;;5.83;4.50;;;15.90;97.30;;;;;;4982608;28;20229;-73
2022/06/01 04:26:16;;;;;;;7.10;4.77;;;16.10;97.00;;;;;;4966315;28;20542;-73
2022/06/01 04:28:46;;;;;;;5.07;4.57;;;15.90;97.60;;;;;;4980235;28;20472;-73
2022/06/01 04:31:11;;;;;;;5.93;5.17;;;15.90;98.00;;;;;;4983558;28;20197;-73
2022/06/01 04:33:40;;;;;;;6.63;4.30;;;15.90;98.40;;;;;;4982981;28;20460;-72
2022/06/01 04:36:05;;;;;;;4.80;4.27;;;16.10;98.30;;;;;;4981218;28;20194;-73
2022/06/01 04:38:31;;;;;;;4.03;3.73;;;16.00;98.30;;;;;;4983794;28;20848;-73
2022/06/01 04:40:56;;;;;;;6.00;4.77;;;16.20;98.20;;;;;;4980625;28;20186;-73
2022/06/01 04:43:23;;;;;;;4.50;4.10;;;16.20;97.80;;;;;;4981951;28;20209;-73
2022/06/01 04:45:53;;;;;;;6.27;4.57;;;16.30;97.60;;;;;;4983966;28;20190;-72
2022/06/01 04:48:19;;;;;;;4.73;4.33;;;16.20;97.60;;;;;;4979578;28;20887;-73
2022/06/01 04:50:45;;;;;;;5.43;4.30;;;16.20;98.10;;;;;;4964353;28;20452;-72
2022/06/01 04:53:14;;;;;;;4.93;4.20;;;16.20;98.20;;;;;;4976335;28;20476;-73
2022/06/01 04:55:42;;;;;;;5.63;4.20;;;16.20;98.60;;;;;;4977895;28;20182;-72
2022/06/01 04:58:08;;;;;;;5.03;4.53;;;16.30;98.90;;;;;;4965539;28;20483;-73
2022/06/01 05:00:33;;;;;;;4.73;4.07;;;16.20;99.00;;;;;;4983403;28;20455;-73
2022/06/01 05:03:00;;;;;;;5.47;4.50;;;16.20;99.30;;;;;;4982740;28;20960;-73
2022/06/01 05:05:26;;;;;;;7.13;4.67;;;16.30;99.30;;;;;;4985321;28;20198;-73
2022/06/01 05:07:52;;;;;;;4.53;4.00;;;16.40;99.20;;;;;;4981672;28;20551;-72
2022/06/01 05:10:19;;;;;;;5.60;4.30;;;16.40;99.10;;;;;;4980437;28;20528;-73
2022/06/01 05:12:45;;;;;;;5.30;4.30;;;16.30;99.40;;;;;;4981630;28;20206;-73
2022/06/01 05:15:11;;;;;;;4.73;4.23;;;16.40;99.60;;;;;;4982653;28;20499;-73
2022/06/01 05:17:36;;;;;;;4.37;3.87;;;16.40;99.50;;;;;;4984769;28;20268;-72
2022/06/01 05:20:03;;;;;;;5.13;4.67;;;16.50;99.10;;;;;;4983356;28;20194;-72
2022/06/01 05:22:28;;;;;;;5.70;4.57;;;16.50;99.30;;;;;;4980275;28;20209;-73
2022/06/01 05:24:54;;;;;;;5.17;4.60;;;16.30;99.70;;;;;;4981232;28;20512;-72
2022/06/01 05:27:20;;;;;;;5.10;4.50;;;16.40;99.90;;;;;;4980428;28;20205;-73
2022/06/01 05:29:46;;;;;;;4.63;4.23;;;16.60;99.90;;;;;;4978236;28;20898;-72
2022/06/01 05:32:12;;;;;;;6.03;4.70;;;16.50;99.90;;;;;;4979421;28;20205;-72
2022/06/01 05:34:38;;;;;;;4.70;4.30;;;16.70;99.90;;;;;;4981947;28;20901;-73
2022/06/01 05:37:04;;;;;;;6.80;4.80;;;16.80;99.90;;;;;;4978876;28;20452;-73
2022/06/01 05:39:29;;;;;;;5.90;4.43;;;16.70;99.90;;;;;;4983265;28;20721;-73
2022/06/01 05:41:55;;;;;;;5.63;5.03;;;16.70;99.90;;;;;;4981873;28;20217;-73
2022/06/01 05:44:21;;;;;;;6.30;4.40;;;16.80;99.90;;;;;;4983329;28;20601;-74
2022/06/01 05:46:53;;;;;;;11.60;5.33;;;16.80;99.90;;;;;;4979386;28;20275;-73
2022/06/01 05:49:19;;;;;;;8.73;5.00;;;16.80;99.90;;;;;;4982223;28;21005;-73
2022/06/01 05:51:44;;;;;;;5.90;4.90;;;16.70;99.90;;;;;;4979347;28;20429;-73
2022/06/01 05:54:10;;;;;;;8.97;5.50;;;16.80;99.90;;;;;;4980270;28;21009;-73
2022/06/01 05:56:35;;;;;;;7.03;5.20;;;16.80;99.90;;;;;;4980804;28;20617;-74
2022/06/01 05:59:02;;;;;;;5.27;4.77;;;16.90;99.90;;;;;;4983397;28;20197;-75
2022/06/01 06:01:29;;;;;;;7.20;5.30;;;16.90;99.90;;;;;;4981494;28;20244;-74
2022/06/01 06:03:55;;;;;;;5.27;4.83;;;16.90;99.90;;;;;;4983664;28;20975;-74
2022/06/01 06:06:22;;;;;;;8.27;5.27;;;17.00;99.90;;;;;;4986592;28;20881;-73
2022/06/01 06:09:00;;;;;;;7.10;4.90;;;17.10;99.90;;;;;;4980137;28;20497;-73
2022/06/01 06:11:27;;;;;;;6.00;5.20;;;17.00;99.90;;;;;;4979118;28;20452;-74
2022/06/01 06:13:53;;;;;;;5.07;4.57;;;17.10;99.90;;;;;;4980253;28;21734;-73
2022/06/01 06:16:19;;;;;;;7.57;4.70;;;17.30;99.90;;;;;;4982052;28;20433;-73
2022/06/01 06:18:45;;;;;;;6.47;4.43;;;17.20;99.90;;;;;;4980645;28;21095;-74
2022/06/01 06:21:11;;;;;;;4.33;3.93;;;17.30;99.90;;;;;;4964765;28;20669;-76
2022/06/01 06:23:40;;;;;;;6.80;4.67;;;17.30;99.90;;;;;;4981037;28;20452;-74
2022/06/01 06:26:07;;;;;;;4.87;4.37;;;17.30;99.90;;;;;;4980290;28;20544;-73
2022/06/01 06:28:33;;;;;;;6.97;4.80;;;17.40;99.90;;;;;;4962570;28;20568;-73
2022/06/01 06:30:59;;;;;;;7.10;4.73;;;17.40;99.90;;;;;;4982137;28;20543;-73
2022/06/01 06:33:25;;;;;;;7.10;4.27;;;17.40;99.90;;;;;;4980901;28;20551;-73
2022/06/01 06:35:58;;;;;;;7.00;4.50;;;17.40;99.90;;;;;;4982031;28;20635;-74
2022/06/01 06:38:26;;;;;;;5.83;4.67;;;17.50;99.90;;;;;;4978894;28;20237;-73
2022/06/01 06:40:54;;;;;;;6.40;4.57;;;17.50;99.90;;;;;;4978707;28;20445;-73
2022/06/01 06:43:20;;;;;;;5.37;4.50;;;17.60;99.90;;;;;;4976483;28;21015;-73
2022/06/01 06:46:01;;;;;;;5.33;4.40;;;17.60;99.90;;;;;;4959778;28;20451;-73
2022/06/01 06:48:27;;;;;;;6.80;5.40;;;17.60;99.90;;;;;;4980077;28;21040;-72
2022/06/01 06:50:53;;;;;;;5.10;4.40;;;17.70;99.90;;;;;;4982167;28;20452;-72
2022/06/01 06:53:19;;;;;;;5.70;4.63;;;17.80;99.90;;;;;;4983060;28;20464;-73
2022/06/01 06:55:45;;;;;;;4.80;4.30;;;17.80;99.90;;;;;;4979961;28;20436;-73
2022/06/01 06:58:11;;;;;;;4.90;4.43;;;17.90;99.90;;;;;;4983272;28;20428;-75
2022/06/01 07:00:37;;;;;;;5.93;5.33;;;17.90;99.90;;;;;;4977820;28;20966;-72
2022/06/01 07:03:04;;;;;;;6.27;5.03;;;17.90;99.90;;;;;;4981790;28;20213;-74
2022/06/01 07:08:14;;;;;;;5.37;4.87;;;17.90;99.90;;;;;;4977993;28;20479;-74
2022/06/01 07:10:40;;;;;;;7.40;4.63;;;17.90;99.90;;;;;;4979932;28;20452;-76
2022/06/01 07:13:06;;;;;;;6.03;4.50;;;18.00;99.90;;;;;;4980176;28;20754;-75
2022/06/01 07:15:31;;;;;;;5.73;4.53;;;18.10;99.90;;;;;;4964063;28;20181;-74
2022/06/01 07:17:57;;;;;;;7.30;4.63;;;18.10;99.90;;;;;;4983304;28;20252;-74
2022/06/01 07:20:23;;;;;;;6.40;4.27;;;18.30;99.90;;;;;;4963782;28;20895;-73
2022/06/01 07:22:48;;;;;;;5.30;4.20;;;18.40;99.90;;;;;;4986997;28;20216;-75
2022/06/01 07:25:14;;;;;;;5.37;4.37;;;18.40;99.90;;;;;;4983865;28;20196;-75
2022/06/01 07:27:39;;;;;;;6.63;4.47;;;18.50;99.90;;;;;;4978176;28;20253;-75
2022/06/01 07:30:07;;;;;;;7.40;3.93;;;18.50;98.80;;;;;;4984271;28;20193;-74
2022/06/01 07:32:33;;;;;;;6.00;3.73;;;18.60;98.20;;;;;;4982659;28;21058;-73
2022/06/01 07:34:59;;;;;;;9.33;3.73;;;18.60;97.20;;;;;;4980891;28;20508;-75
2022/06/01 07:43:08;;;;;;;4.93;3.87;;;18.70;95.10;;;;;;4982064;28;20538;-76
2022/06/01 07:45:44;;;;;;;4.90;3.20;;;18.80;94.10;;;;;;4984167;28;20452;-77
2022/06/01 07:48:10;;;;;;;3.90;3.60;;;18.80;90.90;;;;;;4983083;28;20477;-76
2022/06/01 07:50:37;;;;;;;6.27;3.87;;;18.80;91.10;;;;;;4981888;28;20492;-75
2022/06/01 07:53:05;;;;;;;4.57;3.40;;;18.90;90.90;;;;;;4979617;28;20491;-74
2022/06/01 07:55:30;;;;;;;4.87;3.60;;;19.00;91.10;;;;;;4982808;28;20507;-75
2022/06/01 07:57:56;;;;;;;4.40;3.50;;;19.10;89.30;;;;;;4982169;28;20444;-75
2022/06/01 08:00:22;;;;;;;4.90;3.00;;;19.10;86.80;;;;;;4985187;28;20264;-77
2022/06/01 08:02:48;;;;;;;7.20;3.20;;;19.00;85.80;;;;;;4986030;28;20216;-77
2022/06/01 08:05:16;;;;;;;4.57;3.10;;;19.00;84.00;;;;;;4986606;28;20185;-75
2022/06/01 08:07:43;;;;;;;3.13;2.83;;;19.10;85.60;;;;;;4984912;28;20476;-76
2022/06/01 08:10:11;;;;;;;10.40;3.20;;;19.20;85.20;;;;;;4987183;28;20448;-75
2022/06/01 08:15:22;;;;;;;5.10;3.50;;;19.30;84.60;;;;;;4985262;28;20499;-76
2022/06/01 08:17:48;;;;;;;6.03;3.47;;;19.40;85.00;;;;;;4983364;28;20983;-75
2022/06/01 08:20:15;;;;;;;4.07;3.20;;;19.50;84.80;;;;;;4987080;28;20456;-75
2022/06/01 08:22:42;;;;;;;6.70;3.80;;;19.50;85.50;;;;;;4983033;28;20210;-75
2022/06/01 08:25:11;;;;;;;5.80;3.67;;;19.40;86.30;;;;;;4989844;28;20955;-75
2022/06/01 08:27:37;;;;;;;4.90;3.30;;;19.40;85.70;;;;;;4985976;28;20551;-76
2022/06/01 08:30:03;;;;;;;4.37;2.97;;;19.40;85.20;;;;;;4986366;28;20524;-77
2022/06/01 08:32:29;;;;;;;3.63;3.03;;;19.60;84.40;;;;;;4985108;28;20774;-75
2022/06/01 08:34:55;;;;;;;5.27;3.53;;;19.50;81.60;;;;;;4982662;28;20433;-76
2022/06/01 08:37:21;;;;;;;2.87;2.57;;;19.60;81.50;;;;;;4986488;28;20611;-75
2022/06/01 08:39:46;;;;;;;4.00;3.07;;;19.60;80.90;;;;;;4984541;28;20456;-77
2022/06/01 08:42:15;;;;;;;5.63;2.93;;;19.60;77.70;;;;;;4985228;28;20589;-75
2022/06/01 08:44:44;;;;;;;4.30;3.00;;;19.60;77.70;;;;;;4968047;28;20225;-75
2022/06/01 08:47:19;;;;;;;6.50;3.00;;;19.60;77.40;;;;;;4985747;28;20567;-74
2022/06/01 08:49:45;;;;;;;3.50;2.87;;;19.60;76.50;;;;;;4989161;28;20952;-73
2022/06/01 08:52:11;;;;;;;4.93;3.03;;;19.80;76.60;;;;;;4986778;28;20547;-75
2022/06/01 08:54:37;;;;;;;6.53;3.20;;;19.80;76.70;;;;;;4985721;28;20186;-76
2022/06/01 08:57:08;;;;;;;3.20;2.90;;;19.90;77.00;;;;;;4989640;28;20449;-76
2022/06/01 08:59:42;;;;;;;3.27;2.93;;;19.90;76.60;;;;;;4987823;28;20469;-77
2022/06/01 09:02:18;;;;;;;3.23;2.93;;;19.90;76.30;;;;;;4988127;28;20635;-76
2022/06/01 09:04:47;;;;;;;5.37;2.70;;;20.10;76.30;;;;;;4992386;28;20432;-75
2022/06/01 09:07:25;;;;;;;3.03;2.83;;;20.10;76.20;;;;;;4989963;28;20468;-77
2022/06/01 09:10:08;;;;;;;4.20;3.00;;;20.10;76.00;;;;;;4989742;28;20429;-74
2022/06/01 09:12:35;;;;;;;5.20;3.20;;;20.10;76.10;;;;;;4988348;28;20994;-76
2022/06/01 09:15:17;;;;;;;5.50;3.40;;;20.20;76.20;;;;;;4987599;28;21980;-77
2022/06/01 09:17:43;;;;;;;5.30;3.20;;;20.30;75.50;;;;;;4968304;28;20455;-76
2022/06/01 09:23:00;;;;;;;5.40;3.20;;;20.40;75.80;;;;;;4988741;28;20527;-74
2022/06/01 09:25:32;;;;;;;3.50;3.20;;;20.60;75.50;;;;;;4970950;28;20448;-74
2022/06/01 09:28:02;;;;;;;3.90;3.30;;;20.60;73.90;;;;;;4987026;28;20472;-76
2022/06/01 09:30:44;;;;;;;3.10;2.67;;;20.60;73.80;;;;;;4988663;28;20433;-76
2022/06/01 09:33:24;;;;;;;4.40;3.20;;;20.60;73.60;;;;;;4987967;28;20467;-75
2022/06/01 09:36:03;;;;;;;3.23;2.70;;;20.60;73.20;;;;;;4987208;28;20468;-76
2022/06/01 09:38:40;;;;;;;3.40;2.90;;;20.70;73.50;;;;;;4988389;28;20887;-74
2022/06/01 09:41:24;;;;;;;4.67;2.90;;;21.00;72.60;;;;;;4984888;28;20537;-77
2022/06/01 09:44:01;;;;;;;3.73;3.10;;;21.00;70.90;;;;;;4965204;28;20910;-75
2022/06/01 09:46:47;;;;;;;5.23;3.53;;;21.00;70.10;;;;;;4985693;28;20452;-74
2022/06/01 09:49:29;;;;;;;5.40;2.50;;;21.00;70.90;;;;;;4987314;28;20555;-76
2022/06/01 09:52:00;;;;;;;2.83;2.63;;;21.00;70.40;;;;;;4987381;28;20559;-76
2022/06/01 09:54:30;;;;;;;6.13;3.07;;;21.20;68.80;;;;;;4986018;28;20995;-76
2022/06/01 09:56:56;;;;;;;4.37;2.90;;;21.20;68.60;;;;;;4986717;28;20425;-77
2022/06/01 10:08:28;;;;;;;4.90;2.80;;;21.20;70.20;;;;;;4983210;28;20530;-73
2022/06/01 10:11:06;;;;;;;5.33;3.40;;;21.20;69.70;;;;;;4984521;28;20998;-77
2022/06/01 10:13:47;;;;;;;4.03;2.90;;;21.30;69.40;;;;;;4987694;28;20436;-76
2022/06/01 10:16:16;;;;;;;3.87;2.87;;;21.40;70.50;;;;;;4985196;28;20441;-77
2022/06/01 10:18:44;;;;;;;3.70;2.83;;;21.50;70.50;;;;;;4985062;28;20477;-76
2022/06/01 10:21:13;;;;;;;3.50;3.10;;;21.60;70.20;;;;;;4978870;28;20440;-74
2022/06/01 10:23:55;;;;;;;2.87;2.67;;;21.50;69.90;;;;;;4984862;28;20511;-74
2022/06/01 10:26:32;;;;;;;3.80;3.33;;;21.70;68.80;;;;;;4982153;28;20899;-77
2022/06/01 10:29:07;;;;;;;4.20;3.07;;;21.80;67.70;;;;;;4967161;28;20492;-78
2022/06/01 10:31:37;;;;;;;3.20;2.83;;;22.00;68.30;;;;;;4984939;28;20433;-77
2022/06/01 10:34:17;;;;;;;6.87;3.20;;;22.10;68.60;;;;;;4987072;28;20507;-77
2022/06/01 10:36:58;;;;;;;2.97;2.63;;;22.10;67.90;;;;;;4987566;28;20428;-75
2022/06/01 10:39:39;;;;;;;3.53;2.70;;;22.20;68.30;;;;;;4989672;28;20467;-77
2022/06/01 10:42:16;;;;;;;4.50;3.00;;;22.30;67.30;;;;;;4996528;28;20457;-74
2022/06/01 10:45:00;;;;;;;6.00;3.10;;;22.20;65.80;;;;;;5000595;28;20437;-78
2022/06/01 10:47:47;;;;;;;3.30;3.00;;;22.10;66.50;;;;;;4992408;28;20496;-75
2022/06/01 10:50:18;;;;;;;2.90;2.70;;;22.30;66.90;;;;;;4996183;28;20420;-77
2022/06/01 10:52:49;;;;;;;3.63;2.97;;;22.20;65.60;;;;;;4989618;28;20475;-76
2022/06/01 10:55:20;;;;;;;3.87;2.60;;;22.30;66.20;;;;;;4986930;28;20433;-78
2022/06/01 10:57:49;;;;;;;3.90;2.80;;;22.40;65.90;;;;;;4971235;28;20801;-77
2022/06/01 11:00:26;;;;;;;2.77;2.57;;;22.60;65.40;;;;;;4986363;28;20437;-75
2022/06/01 11:03:20;;;;;;;3.80;3.00;;;22.70;64.30;;;;;;4986158;28;20456;-78
2022/06/01 11:05:57;;;;;;;4.27;3.07;;;22.70;64.90;;;;;;4987668;28;20437;-77
2022/06/01 11:08:50;;;;;;;3.63;3.23;;;22.90;65.50;;;;;;4984386;28;20452;-76
2022/06/01 11:11:30;;;;;;;5.80;3.40;;;22.90;64.30;;;;;;4983147;28;20433;-75
2022/06/01 11:14:18;;;;;;;5.60;2.83;;;23.10;65.70;;;;;;4984156;28;20460;-74
2022/06/01 11:16:59;;;;;;;4.03;2.90;;;23.20;63.90;;;;;;4982212;28;20516;-76
2022/06/01 11:19:39;;;;;;;3.30;2.93;;;23.20;64.40;;;;;;4982578;28;20440;-76
2022/06/01 11:22:31;;;;;;;2.77;2.57;;;23.30;63.90;;;;;;4965105;28;20440;-75
2022/06/01 11:25:37;;;;;;;3.10;2.80;;;23.50;62.10;;;;;;4986004;28;20425;-74
2022/06/01 11:28:38;;;;;;;3.47;2.30;;;23.50;59.00;;;;;;4967857;28;20916;-75
2022/06/01 11:31:14;;;;;;;2.87;2.57;;;23.50;57.60;;;;;;4982187;28;20436;-75
2022/06/01 11:33:49;;;;;;;2.70;2.40;;;23.30;58.10;;;;;;4982136;28;20471;-76
2022/06/01 11:36:32;;;;;;;2.83;2.60;;;23.10;58.60;;;;;;4986721;28;20448;-75
2022/06/01 11:39:21;;;;;;;2.57;2.37;;;23.30;58.00;;;;;;4980852;28;20567;-73
2022/06/01 11:41:57;;;;;;;2.50;2.30;;;23.40;57.80;;;;;;4976118;28;20441;-76
2022/06/01 11:44:35;;;;;;;3.73;2.60;;;23.50;57.60;;;;;;4981911;28;20489;-76
2022/06/01 11:47:16;;;;;;;2.80;2.30;;;23.70;58.40;;;;;;4986481;28;20532;-74
2022/06/01 11:49:44;;;;;;;3.07;2.73;;;24.00;56.20;;;;;;4984754;28;20805;-76
2022/06/01 11:52:28;;;;;;;2.70;2.50;;;24.20;56.90;;;;;;4984140;28;20484;-76
2022/06/01 11:55:06;;;;;;;2.90;2.60;;;24.60;56.20;;;;;;4978413;28;20428;-75
2022/06/01 11:57:43;;;;;;;4.73;2.60;;;24.80;54.00;;;;;;4982717;28;20527;-76
2022/06/01 12:00:21;;;;;;;2.50;2.30;;;24.70;52.10;;;;;;4988650;28;20455;-74
2022/06/01 12:02:53;;;;;;;4.00;3.30;;;25.60;52.60;;;;;;4987179;28;20468;-77
2022/06/01 12:05:27;;;;;;;3.10;2.80;;;27.20;49.80;;;;;;4986392;28;20497;-75
2022/06/01 12:08:19;;;;;;;3.70;2.50;;;28.30;47.80;;;;;;4987882;28;20468;-74
2022/06/01 12:10:54;;;;;;;2.93;2.60;;;29.00;45.10;;;;;;4986923;28;21049;-76
2022/06/01 12:13:27;;;;;;;2.87;2.47;;;28.30;44.10;;;;;;4967714;28;20475;-77
2022/06/01 12:16:04;;;;;;;2.70;2.50;;;28.60;43.70;;;;;;4987419;28;20884;-76
2022/06/01 12:18:32;;;;;;;2.67;2.43;;;28.20;43.10;;;;;;4984800;28;20433;-76
2022/06/01 12:21:16;;;;;;;2.67;2.47;;;27.80;43.50;;;;;;4987531;28;20454;-76
2022/06/01 12:29:59;;;;;;;2.50;2.20;;;26.50;44.60;;;;;;4986495;28;20489;-76
2022/06/01 12:32:25;;;;;;;3.03;2.50;;;26.40;45.90;;;;;;4989332;28;20522;-76
2022/06/01 12:35:08;;;;;;;2.70;2.50;;;26.20;46.00;;;;;;4980057;28;20429;-75
2022/06/01 12:37:40;;;;;;;2.50;2.30;;;26.50;46.10;;;;;;4981348;28;20444;-76
2022/06/01 12:40:17;;;;;;;2.40;2.20;;;26.90;45.00;;;;;;4982355;28;20440;-76
2022/06/01 12:43:05;;;;;;;3.10;2.40;;;27.70;44.40;;;;;;4977998;28;20480;-74
2022/06/01 12:45:40;;;;;;;4.40;3.00;;;27.60;43.90;;;;;;4964184;28;20440;-76
2022/06/01 12:48:19;;;;;;;4.03;2.67;;;28.10;44.10;;;;;;4980772;28;20456;-76
2022/06/01 12:50:50;;;;;;;3.27;2.33;;;29.30;43.30;;;;;;4980974;28;20976;-76
2022/06/01 12:53:23;;;;;;;6.83;2.70;;;29.30;42.60;;;;;;4985642;28;20500;-75
2022/06/01 12:56:12;;;;;;;7.27;3.17;;;29.80;42.90;;;;;;4985192;28;20441;-75
2022/06/01 12:58:40;;;;;;;2.53;2.33;;;29.70;40.50;;;;;;4980483;28;20874;-75
2022/06/01 13:01:07;;;;;;;3.13;2.60;;;29.80;40.70;;;;;;4989066;28;20528;-74
2022/06/01 13:03:33;;;;;;;3.60;2.50;;;31.00;40.20;;;;;;4967445;28;20959;-76
2022/06/01 13:06:04;;;;;;;2.73;2.53;;;30.50;39.40;;;;;;4986198;28;20448;-74
2022/06/01 13:08:32;;;;;;;2.90;2.10;;;30.60;39.60;;;;;;4985576;28;20477;-74
2022/06/01 13:11:29;;;;;;;5.97;2.20;;;30.20;39.20;;;;;;4985215;28;20455;-75
2022/06/01 13:13:59;;;;;;;2.83;2.30;;;30.50;39.60;;;;;;4981299;28;20533;-74
2022/06/01 13:16:33;;;;;;;3.83;2.53;;;30.90;38.60;;;;;;4986441;28;20452;-75
2022/06/01 13:19:13;;;;;;;2.60;2.37;;;31.70;38.40;;;;;;4988199;28;20445;-73
2022/06/01 13:21:43;;;;;;;3.13;2.40;;;31.20;38.60;;;;;;4986597;28;20455;-75
2022/06/01 13:24:10;;;;;;;4.50;2.50;;;30.20;38.40;;;;;;4987736;28;20479;-76
2022/06/01 13:26:39;;;;;;;2.43;2.23;;;29.30;39.60;;;;;;4983092;28;20689;-74
2022/06/01 13:29:36;;;;;;;2.60;2.40;;;29.70;39.50;;;;;;4986151;28;20487;-78
2022/06/01 13:32:08;;;;;;;3.57;2.50;;;30.10;39.60;;;;;;4977690;28;20490;-74
2022/06/01 13:34:50;;;;;;;2.50;2.30;;;30.10;39.50;;;;;;4982521;28;20468;-75
2022/06/01 13:37:25;;;;;;;2.80;2.43;;;30.80;38.60;;;;;;4984673;28;20460;-74
2022/06/01 13:40:01;;;;;;;4.13;2.50;;;33.90;38.50;;;;;;4985369;28;20427;-77
2022/06/01 13:42:32;;;;;;;3.40;2.80;;;35.60;35.60;;;;;;4985981;28;20465;-77
2022/06/01 13:45:04;;;;;;;3.70;2.73;;;36.50;34.20;;;;;;4983476;28;20452;-78